Cody, Wyoming
Current Conditions -  °F | °C
As of 6:35 AM on Monday 24 Nov 2014 (Local Time) from KCOD Reporting Station
Overcast Overcast  
Wind Chill: 28°   Ceiling: 9000
Heat Index: 28°   Visibility: 10mi
Dew Point: 21°   Wind: 3mph
Humidity: 74%   Direction: 230°SW
Pressure: 29.95"   Gusts: NA
Location:  44.53°N, 109.05°W
Report Text: KCOD 241335Z 23003KT 10SM BKN090 OVC120 M02/M06 A2995 RMK AO1
Loading
Personal Weather Stations






























Interactive Weather Map New forecast layout! Learn more

10-Day Weather Forecast

Advertisements
Track Severe Weather on mobile